Time;durP1;ratioP1;P1;durP2;ratioP2;P2;SDS_P1;SDS_P2;PMS_P1;PMS_P2;Temp;Humidity;BMP_temperature;BMP_pressure;BME280_temperature;BME280_humidity;BME280_pressure;Samples;Min_cycle;Max_cycle;Signal;HPM_P1;HPM_P2
2021/10/26 00:01:22;;;;;;;0.63;0.57;;;;;;;;;;5045745;28;20411;-79
2021/10/26 00:03:48;;;;;;;0.87;0.87;;;;;;;;;;5048610;28;20169;-80
2021/10/26 00:06:14;;;;;;;0.47;0.47;;;;;;;;;;5046706;28;20045;-79
2021/10/26 00:08:40;;;;;;;0.20;0.20;;;;;;;;;;5046412;28;20025;-79
2021/10/26 00:11:06;;;;;;;5.32;0.75;;;;;;;;;;5046487;28;20279;-80
2021/10/26 00:13:32;;;;;;;0.20;0.20;;;;;;;;;;5046321;28;20036;-81
2021/10/26 00:15:58;;;;;;;0.45;0.45;;;;;;;;;;5047223;28;20578;-81
2021/10/26 00:18:24;;;;;;;0.47;0.33;;;;;;;;;;5044213;28;20087;-83
2021/10/26 00:20:50;;;;;;;0.30;0.30;;;;;;;;;;5046035;28;20502;-83
2021/10/26 00:23:16;;;;;;;1.83;1.63;;;;;;;;;;5047192;28;20071;-83
2021/10/26 00:25:43;;;;;;;0.50;0.50;;;;;;;;;;5041244;28;20033;-82
2021/10/26 00:28:09;;;;;;;0.10;0.10;;;;;;;;;;5046443;28;20044;-83
2021/10/26 00:30:35;;;;;;;0.57;0.57;;;;;;;;;;5048275;28;20116;-81
2021/10/26 00:33:02;;;;;;;0.25;0.17;;;;;;;;;;5046008;28;20521;-81
2021/10/26 00:35:28;;;;;;;0.55;0.55;;;;;;;;;;5045186;28;20375;-82
2021/10/26 00:38:00;;;;;;;0.43;0.43;;;;;;;;;;5046225;28;20017;-83
2021/10/26 00:40:26;;;;;;;3.45;1.38;;;;;;;;;;5046164;28;20036;-83
2021/10/26 00:42:52;;;;;;;0.20;0.20;;;;;;;;;;5046869;28;20031;-82
2021/10/26 00:45:18;;;;;;;0.20;0.20;;;;;;;;;;5046424;28;20049;-82
2021/10/26 00:47:44;;;;;;;1.10;0.70;;;;;;;;;;5046092;28;20055;-81
2021/10/26 00:50:11;;;;;;;0.20;0.20;;;;;;;;;;5046200;28;20024;-79
2021/10/26 00:52:37;;;;;;;0.20;0.20;;;;;;;;;;5032555;28;20036;-81
2021/10/26 00:55:04;;;;;;;0.20;0.20;;;;;;;;;;5044284;28;20086;-81
2021/10/26 00:57:30;;;;;;;;;;;;;;;;;;5047907;28;20484;-82
2021/10/26 00:59:56;;;;;;;0.55;0.55;;;;;;;;;;5045904;28;19919;-81
2021/10/26 01:02:22;;;;;;;0.35;0.35;;;;;;;;;;5045267;28;20393;-81
2021/10/26 01:04:48;;;;;;;0.50;0.50;;;;;;;;;;5045269;28;20029;-80
2021/10/26 01:07:14;;;;;;;0.73;0.73;;;;;;;;;;5045475;28;20108;-81
2021/10/26 01:09:41;;;;;;;1.20;0.67;;;;;;;;;;5063074;28;20542;-81
2021/10/26 01:12:07;;;;;;;0.32;0.32;;;;;;;;;;5045984;28;20524;-81
2021/10/26 01:14:33;;;;;;;0.75;0.75;;;;;;;;;;5044540;28;20037;-81
2021/10/26 01:17:03;;;;;;;0.28;0.28;;;;;;;;;;5045838;28;20058;-80
2021/10/26 01:19:42;;;;;;;0.90;0.52;;;;;;;;;;5045209;28;20084;-81
2021/10/26 01:22:08;;;;;;;0.20;0.20;;;;;;;;;;5044147;28;20499;-82
2021/10/26 01:24:34;;;;;;;0.75;0.75;;;;;;;;;;5046402;28;20115;-82
2021/10/26 01:27:00;;;;;;;0.20;0.20;;;;;;;;;;5044414;28;20186;-81
2021/10/26 01:29:26;;;;;;;1.07;0.97;;;;;;;;;;5046121;28;20399;-80
2021/10/26 01:31:52;;;;;;;2.13;0.57;;;;;;;;;;5045118;28;20036;-82
2021/10/26 01:34:18;;;;;;;8.03;0.63;;;;;;;;;;5045644;28;20030;-82
2021/10/26 01:36:44;;;;;;;0.77;0.77;;;;;;;;;;5043197;28;20051;-81
2021/10/26 01:39:11;;;;;;;0.63;0.63;;;;;;;;;;5060647;28;20033;-81
2021/10/26 01:41:37;;;;;;;0.40;0.40;;;;;;;;;;5043862;28;20029;-81
2021/10/26 01:44:03;;;;;;;0.33;0.33;;;;;;;;;;5045551;28;20040;-81
2021/10/26 01:46:29;;;;;;;0.53;0.53;;;;;;;;;;5048429;28;20162;-81
2021/10/26 01:48:55;;;;;;;0.23;0.23;;;;;;;;;;5050637;28;20039;-81
2021/10/26 01:51:21;;;;;;;0.57;0.57;;;;;;;;;;5050016;28;20435;-82
2021/10/26 01:53:47;;;;;;;0.10;0.10;;;;;;;;;;5049037;28;20032;-81
2021/10/26 01:56:13;;;;;;;0.20;0.20;;;;;;;;;;5047838;28;20124;-83
2021/10/26 01:58:39;;;;;;;0.57;0.53;;;;;;;;;;5048993;28;20295;-81
2021/10/26 02:01:05;;;;;;;0.30;0.30;;;;;;;;;;5049176;28;20036;-81
2021/10/26 02:03:31;;;;;;;0.13;0.13;;;;;;;;;;5049000;28;20028;-81
2021/10/26 02:05:58;;;;;;;0.20;0.20;;;;;;;;;;5048449;28;20021;-80
2021/10/26 02:08:24;;;;;;;0.10;0.10;;;;;;;;;;5048994;28;20029;-81
2021/10/26 02:10:50;;;;;;;2.63;1.08;;;;;;;;;;5048583;28;20457;-81
2021/10/26 02:13:16;;;;;;;0.20;0.20;;;;;;;;;;5047133;28;20385;-81
2021/10/26 02:15:42;;;;;;;3.63;0.77;;;;;;;;;;5050288;28;20272;-80
2021/10/26 02:18:08;;;;;;;0.23;0.23;;;;;;;;;;5048943;28;20041;-82
2021/10/26 02:20:34;;;;;;;0.20;0.20;;;;;;;;;;5047437;28;20040;-81
2021/10/26 02:23:01;;;;;;;0.10;0.10;;;;;;;;;;5048362;28;20304;-82
2021/10/26 02:25:27;;;;;;;0.20;0.20;;;;;;;;;;5048371;28;20435;-81
2021/10/26 02:27:53;;;;;;;0.10;0.10;;;;;;;;;;5048043;28;20037;-81
2021/10/26 02:30:19;;;;;;;0.90;0.87;;;;;;;;;;5049097;28;20036;-81
2021/10/26 02:32:45;;;;;;;0.37;0.37;;;;;;;;;;5048316;28;20021;-81
2021/10/26 02:35:12;;;;;;;0.45;0.43;;;;;;;;;;5048696;28;20201;-81
2021/10/26 02:37:38;;;;;;;1.73;0.70;;;;;;;;;;5048242;28;20199;-81
2021/10/26 02:40:04;;;;;;;0.52;0.52;;;;;;;;;;5047337;28;20511;-81
2021/10/26 02:42:31;;;;;;;1.45;0.38;;;;;;;;;;5048415;28;20047;-81
2021/10/26 02:44:57;;;;;;;0.30;0.30;;;;;;;;;;5047071;28;20079;-81
2021/10/26 02:47:23;;;;;;;0.47;0.47;;;;;;;;;;5048300;28;20412;-83
2021/10/26 02:49:49;;;;;;;0.30;0.30;;;;;;;;;;5047846;28;20032;-82
2021/10/26 02:52:15;;;;;;;0.43;0.43;;;;;;;;;;5048923;28;20115;-82
2021/10/26 02:54:41;;;;;;;0.30;0.30;;;;;;;;;;5049514;28;20040;-82
2021/10/26 02:57:07;;;;;;;0.20;0.20;;;;;;;;;;5047815;28;20107;-82
2021/10/26 02:59:33;;;;;;;0.37;0.33;;;;;;;;;;5046512;28;20279;-81
2021/10/26 03:02:00;;;;;;;0.10;0.10;;;;;;;;;;5047725;28;20280;-81
2021/10/26 03:04:26;;;;;;;0.43;0.43;;;;;;;;;;5045880;28;20021;-81
2021/10/26 03:06:52;;;;;;;0.13;0.13;;;;;;;;;;5048023;28;20098;-83
2021/10/26 03:09:18;;;;;;;0.40;0.40;;;;;;;;;;5048377;28;20036;-82
2021/10/26 03:11:44;;;;;;;1.20;1.13;;;;;;;;;;5049553;28;20162;-82
2021/10/26 03:14:10;;;;;;;0.10;0.10;;;;;;;;;;5048071;28;20570;-82
2021/10/26 03:16:36;;;;;;;0.33;0.33;;;;;;;;;;5047692;28;20151;-82
2021/10/26 03:19:05;;;;;;;0.28;0.28;;;;;;;;;;5046632;28;20029;-81
2021/10/26 03:21:32;;;;;;;0.52;0.47;;;;;;;;;;5047321;28;20075;-82
2021/10/26 03:23:58;;;;;;;0.40;0.40;;;;;;;;;;5047481;28;20691;-82
2021/10/26 03:26:24;;;;;;;0.13;0.13;;;;;;;;;;5047448;28;20037;-82
2021/10/26 03:28:50;;;;;;;0.10;0.10;;;;;;;;;;5047264;28;20025;-82
2021/10/26 03:31:16;;;;;;;5.88;0.73;;;;;;;;;;5047811;28;20268;-82
2021/10/26 03:33:43;;;;;;;0.30;0.30;;;;;;;;;;5049552;28;20032;-81
2021/10/26 03:36:09;;;;;;;0.37;0.37;;;;;;;;;;5047076;28;20040;-81
2021/10/26 03:38:36;;;;;;;0.30;0.30;;;;;;;;;;5047064;28;20546;-83
2021/10/26 03:41:02;;;;;;;;;;;;;;;;;;5048220;28;20267;-84
2021/10/26 03:43:28;;;;;;;0.85;0.85;;;;;;;;;;5045026;28;19916;-81
2021/10/26 03:45:54;;;;;;;1.55;1.45;;;;;;;;;;5048922;28;20102;-80
2021/10/26 03:48:20;;;;;;;0.10;0.10;;;;;;;;;;5047803;28;20065;-81
2021/10/26 03:50:47;;;;;;;0.10;0.10;;;;;;;;;;5046007;28;20021;-81
2021/10/26 03:53:13;;;;;;;0.90;0.90;;;;;;;;;;5046239;28;20503;-81
2021/10/26 03:55:39;;;;;;;0.53;0.47;;;;;;;;;;5047493;28;20766;-81
2021/10/26 03:58:07;;;;;;;0.45;0.45;;;;;;;;;;5046363;28;20033;-81
2021/10/26 04:00:33;;;;;;;0.68;0.68;;;;;;;;;;5047037;28;20056;-83
2021/10/26 04:02:59;;;;;;;0.20;0.20;;;;;;;;;;5045297;28;20119;-81
2021/10/26 04:08:23;;;;;;;0.35;0.35;;;;;;;;;;5046315;28;20071;-82
2021/10/26 04:10:59;;;;;;;0.32;0.32;;;;;;;;;;5046803;28;20033;-82
2021/10/26 04:13:26;;;;;;;0.40;0.40;;;;;;;;;;5032343;28;20392;-84
2021/10/26 04:15:54;;;;;;;0.20;0.20;;;;;;;;;;5046820;28;20056;-84
2021/10/26 04:18:21;;;;;;;0.28;0.28;;;;;;;;;;5046921;28;20066;-83
2021/10/26 04:20:47;;;;;;;;;;;;;;;;;;5046757;28;20025;-83
2021/10/26 04:23:13;;;;;;;0.10;0.10;;;;;;;;;;5046199;28;19909;-81
2021/10/26 04:25:39;;;;;;;0.20;0.20;;;;;;;;;;5045732;28;20504;-81
2021/10/26 04:28:06;;;;;;;0.23;0.23;;;;;;;;;;5046104;28;20032;-81
2021/10/26 04:30:34;;;;;;;0.47;0.47;;;;;;;;;;5048049;28;20033;-81
2021/10/26 04:33:01;;;;;;;1.60;1.38;;;;;;;;;;5044631;28;20420;-81
2021/10/26 04:35:27;;;;;;;1.55;1.05;;;;;;;;;;5045173;28;20025;-81
2021/10/26 04:37:53;;;;;;;0.50;0.47;;;;;;;;;;5045966;28;20111;-81
2021/10/26 04:40:19;;;;;;;0.47;0.47;;;;;;;;;;5045357;28;20389;-81
2021/10/26 04:42:45;;;;;;;0.35;0.35;;;;;;;;;;5048313;28;20039;-83
2021/10/26 04:45:12;;;;;;;0.30;0.30;;;;;;;;;;5044738;28;20496;-82
2021/10/26 04:47:38;;;;;;;0.43;0.43;;;;;;;;;;5044960;28;20051;-83
2021/10/26 04:50:04;;;;;;;1.25;1.17;;;;;;;;;;5046274;28;20124;-81
2021/10/26 04:52:31;;;;;;;0.55;0.55;;;;;;;;;;5045919;28;20043;-82
2021/10/26 04:54:56;;;;;;;0.40;0.40;;;;;;;;;;5047488;28;20067;-82
2021/10/26 04:57:23;;;;;;;0.15;0.15;;;;;;;;;;5045932;28;20052;-82
2021/10/26 04:59:49;;;;;;;0.33;0.33;;;;;;;;;;5045507;28;20092;-82
2021/10/26 05:02:15;;;;;;;0.20;0.20;;;;;;;;;;5045743;28;20276;-82
2021/10/26 05:04:41;;;;;;;0.50;0.50;;;;;;;;;;5046291;28;20058;-83
2021/10/26 05:07:08;;;;;;;0.20;0.20;;;;;;;;;;5044611;28;20302;-82
2021/10/26 05:09:34;;;;;;;;;;;;;;;;;;5047749;28;20484;-82
2021/10/26 05:12:00;;;;;;;1.20;1.10;;;;;;;;;;5045604;28;19913;-83
2021/10/26 05:14:26;;;;;;;0.50;0.50;;;;;;;;;;5039964;28;20028;-82
2021/10/26 05:16:53;;;;;;;0.13;0.13;;;;;;;;;;5046067;28;20040;-81
2021/10/26 05:19:21;;;;;;;;;;;;;;;;;;5042998;28;20388;-81
2021/10/26 05:21:47;;;;;;;0.20;0.20;;;;;;;;;;5047928;28;19917;-81
2021/10/26 05:24:13;;;;;;;0.38;0.38;;;;;;;;;;5049202;28;20120;-82
2021/10/26 05:26:39;;;;;;;0.97;0.97;;;;;;;;;;5049656;28;20049;-83
2021/10/26 05:29:08;;;;;;;0.63;0.60;;;;;;;;;;5049386;28;20033;-82
2021/10/26 05:31:34;;;;;;;0.25;0.25;;;;;;;;;;5049703;28;20086;-81
2021/10/26 05:34:00;;;;;;;0.05;0.05;;;;;;;;;;5050506;28;20083;-81
2021/10/26 05:36:26;;;;;;;0.17;0.17;;;;;;;;;;5051268;28;20496;-81
2021/10/26 05:38:53;;;;;;;1.17;0.43;;;;;;;;;;5049570;28;20067;-82
2021/10/26 05:41:19;;;;;;;0.20;0.20;;;;;;;;;;5045592;28;20028;-83
2021/10/26 05:43:45;;;;;;;0.10;0.10;;;;;;;;;;5046398;28;20025;-82
2021/10/26 05:46:11;;;;;;;0.60;0.60;;;;;;;;;;5060530;28;20296;-84
2021/10/26 05:48:37;;;;;;;0.30;0.30;;;;;;;;;;5046666;28;20036;-83
2021/10/26 05:51:04;;;;;;;0.13;0.13;;;;;;;;;;5045971;28;20029;-83
2021/10/26 05:53:31;;;;;;;0.57;0.47;;;;;;;;;;5045430;28;20292;-84
2021/10/26 05:55:57;;;;;;;0.40;0.40;;;;;;;;;;5043903;28;20070;-84
2021/10/26 05:58:23;;;;;;;0.90;0.82;;;;;;;;;;5036030;28;20086;-84
2021/10/26 06:00:49;;;;;;;0.30;0.30;;;;;;;;;;5062975;28;20033;-84
2021/10/26 06:03:16;;;;;;;0.30;0.30;;;;;;;;;;5044414;28;20123;-84
2021/10/26 06:05:42;;;;;;;0.63;0.63;;;;;;;;;;5045427;28;20522;-84
2021/10/26 06:08:08;;;;;;;0.30;0.30;;;;;;;;;;5045172;28;20120;-84
2021/10/26 06:10:40;;;;;;;0.20;0.20;;;;;;;;;;5045819;28;20032;-84
2021/10/26 06:13:10;;;;;;;0.85;0.40;;;;;;;;;;5045901;28;20243;-84
2021/10/26 06:15:37;;;;;;;0.22;0.17;;;;;;;;;;5047463;28;20075;-82
2021/10/26 06:18:03;;;;;;;0.43;0.40;;;;;;;;;;5045767;28;20029;-85
2021/10/26 06:20:29;;;;;;;0.10;0.10;;;;;;;;;;5045352;28;20090;-86
2021/10/26 06:22:55;;;;;;;0.60;0.60;;;;;;;;;;5044168;28;20488;-86
2021/10/26 06:25:21;;;;;;;0.50;0.50;;;;;;;;;;5044160;28;20112;-86
2021/10/26 06:27:47;;;;;;;0.70;0.70;;;;;;;;;;5044006;28;20127;-85
2021/10/26 06:30:13;;;;;;;0.10;0.10;;;;;;;;;;5044622;28;20037;-85
2021/10/26 06:32:40;;;;;;;0.83;0.83;;;;;;;;;;5045353;28;20075;-85
2021/10/26 06:35:06;;;;;;;;;;;;;;;;;;5046111;28;20082;-86
2021/10/26 06:37:34;;;;;;;0.50;0.45;;;;;;;;;;5045364;28;19912;-85
2021/10/26 06:40:00;;;;;;;1.17;1.13;;;;;;;;;;5045419;28;20068;-87
2021/10/26 06:42:26;;;;;;;0.43;0.43;;;;;;;;;;5045818;28;20123;-86
2021/10/26 06:44:52;;;;;;;0.55;0.43;;;;;;;;;;5045942;28;20488;-86
2021/10/26 06:47:19;;;;;;;0.20;0.20;;;;;;;;;;5046793;28;20251;-82
2021/10/26 06:49:46;;;;;;;0.55;0.55;;;;;;;;;;5044699;28;20500;-82
2021/10/26 06:52:12;;;;;;;0.30;0.30;;;;;;;;;;5042806;28;20080;-82
2021/10/26 06:54:39;;;;;;;0.32;0.32;;;;;;;;;;5046121;28;20051;-82
2021/10/26 06:57:05;;;;;;;0.30;0.30;;;;;;;;;;5042343;28;20037;-82
2021/10/26 06:59:31;;;;;;;0.45;0.45;;;;;;;;;;5042342;28;20032;-82
2021/10/26 07:01:57;;;;;;;0.32;0.32;;;;;;;;;;5043811;28;20171;-86
2021/10/26 07:04:23;;;;;;;2.28;2.05;;;;;;;;;;5044321;28;20138;-86
2021/10/26 07:06:49;;;;;;;0.47;0.47;;;;;;;;;;5044147;28;20440;-85
2021/10/26 07:09:16;;;;;;;2.57;1.57;;;;;;;;;;5043772;28;20025;-86
2021/10/26 07:11:42;;;;;;;0.20;0.20;;;;;;;;;;5044464;28;20110;-85
2021/10/26 07:14:08;;;;;;;0.27;0.27;;;;;;;;;;5043421;28;20033;-84
2021/10/26 07:16:34;;;;;;;0.20;0.20;;;;;;;;;;5044871;28;20283;-85
2021/10/26 07:19:00;;;;;;;0.53;0.53;;;;;;;;;;5045185;28;20052;-84
2021/10/26 07:21:26;;;;;;;0.27;0.27;;;;;;;;;;5045660;28;20082;-85
2021/10/26 07:23:52;;;;;;;0.57;0.57;;;;;;;;;;5044598;28;20431;-84
2021/10/26 07:26:18;;;;;;;0.52;0.52;;;;;;;;;;5042147;28;20036;-83
2021/10/26 07:28:44;;;;;;;1.63;1.53;;;;;;;;;;5044212;28;20033;-86
2021/10/26 07:31:10;;;;;;;0.55;0.55;;;;;;;;;;5042878;28;20028;-84
2021/10/26 07:33:36;;;;;;;0.40;0.40;;;;;;;;;;5045956;28;20025;-84
2021/10/26 07:36:08;;;;;;;0.83;0.50;;;;;;;;;;5045197;28;20033;-86
2021/10/26 07:38:39;;;;;;;0.55;0.55;;;;;;;;;;5044311;28;20032;-86
2021/10/26 07:41:05;;;;;;;0.63;0.63;;;;;;;;;;5043570;28;20064;-84
2021/10/26 07:43:33;;;;;;;0.98;0.98;;;;;;;;;;5043457;28;20025;-85
2021/10/26 07:45:59;;;;;;;0.10;0.10;;;;;;;;;;5043095;28;20637;-84
2021/10/26 07:48:25;;;;;;;0.30;0.30;;;;;;;;;;5044074;28;20119;-84
2021/10/26 07:50:58;;;;;;;0.98;0.57;;;;;;;;;;5043118;28;20592;-84
2021/10/26 07:53:24;;;;;;;0.88;0.50;;;;;;;;;;5041402;28;20104;-85
2021/10/26 07:55:52;;;;;;;0.32;0.32;;;;;;;;;;5043426;28;20028;-85
2021/10/26 07:58:18;;;;;;;0.10;0.10;;;;;;;;;;5045217;28;20060;-85
2021/10/26 08:00:44;;;;;;;1.45;0.80;;;;;;;;;;5043922;28;20180;-86
2021/10/26 08:03:10;;;;;;;8.73;0.63;;;;;;;;;;5042017;28;20474;-85
2021/10/26 08:05:36;;;;;;;0.43;0.43;;;;;;;;;;5042074;28;20041;-86
2021/10/26 08:08:03;;;;;;;0.67;0.67;;;;;;;;;;5036019;28;20841;-85
2021/10/26 08:10:29;;;;;;;0.85;0.55;;;;;;;;;;5031128;28;20028;-86
2021/10/26 08:12:55;;;;;;;6.72;2.15;;;;;;;;;;5044420;28;20067;-85
2021/10/26 08:15:21;;;;;;;0.50;0.50;;;;;;;;;;5052707;28;20053;-85
2021/10/26 08:17:47;;;;;;;0.17;0.17;;;;;;;;;;5055645;28;20086;-85
2021/10/26 08:20:13;;;;;;;0.30;0.30;;;;;;;;;;5050542;28;20739;-85
2021/10/26 08:22:40;;;;;;;0.15;0.15;;;;;;;;;;5068189;28;20040;-83
2021/10/26 08:25:13;;;;;;;;;;;;;;;;;;5059580;28;20023;-83
2021/10/26 08:27:39;;;;;;;0.63;0.63;;;;;;;;;;5052307;28;19925;-85
2021/10/26 08:30:18;;;;;;;0.20;0.20;;;;;;;;;;5056744;28;20024;-84
2021/10/26 08:33:01;;;;;;;0.20;0.20;;;;;;;;;;5071171;28;20119;-85
2021/10/26 08:35:31;;;;;;;1.27;1.15;;;;;;;;;;5046816;28;20021;-83
2021/10/26 08:37:58;;;;;;;1.75;1.65;;;;;;;;;;5072530;28;20486;-83
2021/10/26 08:40:24;;;;;;;0.68;0.68;;;;;;;;;;5057122;28;20032;-84
2021/10/26 08:42:50;;;;;;;1.03;1.03;;;;;;;;;;5061640;28;20020;-84
2021/10/26 08:45:19;;;;;;;0.30;0.30;;;;;;;;;;5056980;28;20291;-83
2021/10/26 08:47:45;;;;;;;0.60;0.60;;;;;;;;;;5071855;28;20550;-83
2021/10/26 08:50:11;;;;;;;1.17;0.75;;;;;;;;;;5056682;28;20036;-84
2021/10/26 08:52:37;;;;;;;0.40;0.40;;;;;;;;;;5057957;28;20032;-83
2021/10/26 08:55:06;;;;;;;0.28;0.25;;;;;;;;;;5058044;28;20036;-84
2021/10/26 08:57:32;;;;;;;1.27;1.08;;;;;;;;;;5057666;28;20108;-83
2021/10/26 09:00:05;;;;;;;1.20;0.67;;;;;;;;;;5053943;28;20039;-84
2021/10/26 09:02:45;;;;;;;0.57;0.50;;;;;;;;;;5053337;28;20120;-82
2021/10/26 09:05:14;;;;;;;1.73;1.23;;;;;;;;;;5053530;28;20090;-83
2021/10/26 09:07:40;;;;;;;0.55;0.55;;;;;;;;;;5052525;28;20131;-83
2021/10/26 09:10:14;;;;;;;0.60;0.60;;;;;;;;;;5073263;28;20028;-85
2021/10/26 09:17:51;;;;;;;0.60;0.60;;;;;;;;;;5050755;28;20271;-84
2021/10/26 09:20:21;;;;;;;0.50;0.50;;;;;;;;;;5070553;28;20035;-83
2021/10/26 09:22:50;;;;;;;0.77;0.77;;;;;;;;;;5054977;28;20040;-83
2021/10/26 09:25:16;;;;;;;1.15;1.13;;;;;;;;;;5057060;28;20029;-84
2021/10/26 09:27:44;;;;;;;0.53;0.53;;;;;;;;;;5061338;28;20097;-83
2021/10/26 09:30:12;;;;;;;0.30;0.30;;;;;;;;;;5071785;28;20290;-84
2021/10/26 09:32:40;;;;;;;0.40;0.40;;;;;;;;;;5056870;28;20039;-84
2021/10/26 09:35:10;;;;;;;0.47;0.47;;;;;;;;;;5056580;28;20120;-85
2021/10/26 09:37:41;;;;;;;0.30;0.30;;;;;;;;;;5041668;28;20119;-84
2021/10/26 09:40:08;;;;;;;0.43;0.43;;;;;;;;;;5060610;28;20521;-84
2021/10/26 09:42:34;;;;;;;;;;;;;;;;;;5058933;28;20059;-84
2021/10/26 09:45:03;;;;;;;0.55;0.55;;;;;;;;;;5056913;28;21312;-83
2021/10/26 09:47:34;;;;;;;0.43;0.43;;;;;;;;;;5049298;28;20095;-85
2021/10/26 09:50:02;;;;;;;1.88;1.42;;;;;;;;;;5050967;28;20040;-85
2021/10/26 09:52:28;;;;;;;0.98;0.55;;;;;;;;;;5039896;28;20488;-84
2021/10/26 09:57:40;;;;;;;0.63;0.63;;;;;;;;;;5042232;28;20263;-83
2021/10/26 10:00:08;;;;;;;1.02;0.95;;;;;;;;;;5041904;28;20163;-84
2021/10/26 10:02:34;;;;;;;0.13;0.13;;;;;;;;;;5041591;28;20033;-84
2021/10/26 10:05:01;;;;;;;0.47;0.47;;;;;;;;;;5040938;28;20588;-84
2021/10/26 10:07:28;;;;;;;0.70;0.57;;;;;;;;;;5045082;28;20044;-83
2021/10/26 10:09:58;;;;;;;12.75;0.88;;;;;;;;;;5046666;28;20549;-83
2021/10/26 10:12:26;;;;;;;1.65;1.27;;;;;;;;;;5045761;28;20024;-84
2021/10/26 10:14:54;;;;;;;0.73;0.52;;;;;;;;;;5044353;28;20036;-83
2021/10/26 10:17:21;;;;;;;0.68;0.68;;;;;;;;;;5044803;28;20021;-83
2021/10/26 10:19:48;;;;;;;0.75;0.50;;;;;;;;;;5044523;28;20043;-84
2021/10/26 10:22:15;;;;;;;0.93;0.93;;;;;;;;;;5060429;28;20638;-84
2021/10/26 10:24:42;;;;;;;0.45;0.43;;;;;;;;;;5046471;28;20043;-84
2021/10/26 10:27:09;;;;;;;0.65;0.57;;;;;;;;;;5044043;28;20192;-84
2021/10/26 10:29:39;;;;;;;2.55;0.40;;;;;;;;;;5044721;28;20033;-84
2021/10/26 10:32:05;;;;;;;0.38;0.38;;;;;;;;;;5049076;28;20132;-82
2021/10/26 10:34:31;;;;;;;0.28;0.28;;;;;;;;;;5047196;28;20043;-82
2021/10/26 10:36:59;;;;;;;0.40;0.40;;;;;;;;;;5049041;28;20061;-82
2021/10/26 10:39:32;;;;;;;0.73;0.45;;;;;;;;;;5068820;28;20025;-82
2021/10/26 10:42:22;;;;;;;0.00;0.00;;;;;;;;;;5048026;28;20053;-82
2021/10/26 10:44:48;;;;;;;0.20;0.20;;;;;;;;;;5042672;28;20526;-82
2021/10/26 10:47:39;;;;;;;0.52;0.52;;;;;;;;;;5043377;28;20582;-82
2021/10/26 10:50:20;;;;;;;0.08;0.08;;;;;;;;;;5043517;28;20036;-82
2021/10/26 10:53:03;;;;;;;0.17;0.17;;;;;;;;;;5043989;28;20029;-82
2021/10/26 10:55:29;;;;;;;0.75;0.30;;;;;;;;;;5044391;28;20590;-82
2021/10/26 10:57:55;;;;;;;0.47;0.47;;;;;;;;;;5060748;28;20029;-82
2021/10/26 11:00:24;;;;;;;0.28;0.22;;;;;;;;;;5058149;28;20462;-82
2021/10/26 11:02:51;;;;;;;0.40;0.40;;;;;;;;;;5052191;28;20074;-82
2021/10/26 11:05:33;;;;;;;2.05;0.35;;;;;;;;;;5052039;28;20064;-83
2021/10/26 11:08:20;;;;;;;0.20;0.20;;;;;;;;;;5043942;28;20052;-82
2021/10/26 11:10:46;;;;;;;;;;;;;;;;;;5040349;28;20037;-81
2021/10/26 11:13:19;;;;;;;0.22;0.22;;;;;;;;;;5044149;28;19923;-82
2021/10/26 11:15:46;;;;;;;0.40;0.30;;;;;;;;;;5062078;28;20032;-80
2021/10/26 11:18:32;;;;;;;0.17;0.17;;;;;;;;;;5073650;28;20027;-82
2021/10/26 11:20:58;;;;;;;0.47;0.47;;;;;;;;;;5055752;28;20036;-82
2021/10/26 11:23:30;;;;;;;0.13;0.13;;;;;;;;;;5056820;28;20110;-82
2021/10/26 11:25:59;;;;;;;2.58;2.38;;;;;;;;;;5057357;28;20032;-81
2021/10/26 11:28:27;;;;;;;10.85;1.30;;;;;;;;;;5058019;28;20043;-82
2021/10/26 11:30:55;;;;;;;2.00;1.40;;;;;;;;;;5056130;28;20048;-82
2021/10/26 11:33:24;;;;;;;1.10;1.10;;;;;;;;;;5048549;28;20091;-82
2021/10/26 11:35:51;;;;;;;0.45;0.45;;;;;;;;;;5055133;28;20020;-83
2021/10/26 11:38:17;;;;;;;;;;;;;;;;;;5057755;28;20056;-83
2021/10/26 11:41:10;;;;;;;2.50;1.23;;;;;;;;;;5043754;28;20489;-82
2021/10/26 11:43:46;;;;;;;1.02;0.65;;;;;;;;;;5028931;28;20037;-82
2021/10/26 11:46:14;;;;;;;0.30;0.30;;;;;;;;;;5049837;28;20060;-83
2021/10/26 11:48:43;;;;;;;0.00;0.00;;;;;;;;;;5046006;28;20041;-84
2021/10/26 11:51:28;;;;;;;0.10;0.10;;;;;;;;;;5042136;28;20205;-84
2021/10/26 11:53:58;;;;;;;0.20;0.20;;;;;;;;;;5042549;28;20076;-84
2021/10/26 11:56:26;;;;;;;0.45;0.40;;;;;;;;;;5043307;28;20020;-84
2021/10/26 11:59:03;;;;;;;0.65;0.65;;;;;;;;;;5043209;28;20411;-84
2021/10/26 12:01:35;;;;;;;0.35;0.35;;;;;;;;;;5043709;28;20206;-84
2021/10/26 12:04:02;;;;;;;0.00;0.00;;;;;;;;;;5042715;28;20537;-84
2021/10/26 12:06:28;;;;;;;;;;;;;;;;;;5044674;28;20031;-84
2021/10/26 12:09:00;;;;;;;0.20;0.20;;;;;;;;;;5043250;28;19923;-84
2021/10/26 12:11:27;;;;;;;0.20;0.20;;;;;;;;;;5043054;28;20039;-84
2021/10/26 12:14:12;;;;;;;0.20;0.20;;;;;;;;;;5042918;28;20029;-85
2021/10/26 12:16:38;;;;;;;0.20;0.20;;;;;;;;;;5029092;28;20578;-84
2021/10/26 12:19:04;;;;;;;0.03;0.03;;;;;;;;;;5043137;28;20029;-84
2021/10/26 12:21:30;;;;;;;0.10;0.10;;;;;;;;;;5042695;28;20116;-84
2021/10/26 12:23:56;;;;;;;0.00;0.00;;;;;;;;;;5042607;28;20032;-85
2021/10/26 12:26:23;;;;;;;0.00;0.00;;;;;;;;;;5042581;28;20124;-84
2021/10/26 12:28:58;;;;;;;0.10;0.10;;;;;;;;;;5041951;28;20064;-85
2021/10/26 12:31:25;;;;;;;0.93;0.70;;;;;;;;;;5027195;28;20492;-84
2021/10/26 12:33:51;;;;;;;;;;;;;;;;;;5044876;28;20488;-84
2021/10/26 12:36:20;;;;;;;0.20;0.20;;;;;;;;;;5042006;28;19913;-83
2021/10/26 12:38:47;;;;;;;0.15;0.15;;;;;;;;;;5041660;28;20578;-85
2021/10/26 12:41:17;;;;;;;0.10;0.10;;;;;;;;;;5041950;28;20118;-84
2021/10/26 12:43:49;;;;;;;0.13;0.13;;;;;;;;;;5042288;28;20033;-83
2021/10/26 12:46:20;;;;;;;0.10;0.10;;;;;;;;;;5041914;28;20056;-85
2021/10/26 12:48:47;;;;;;;0.70;0.70;;;;;;;;;;5044273;28;20053;-84
2021/10/26 12:51:20;;;;;;;0.40;0.40;;;;;;;;;;5042108;28;20021;-84
2021/10/26 12:53:46;;;;;;;0.08;0.08;;;;;;;;;;5041796;28;20037;-84
2021/10/26 12:56:24;;;;;;;0.10;0.10;;;;;;;;;;5041767;28;20025;-84
2021/10/26 12:58:51;;;;;;;0.10;0.10;;;;;;;;;;5041917;28;20029;-84
2021/10/26 13:01:17;;;;;;;0.05;0.03;;;;;;;;;;5042478;28;20037;-84
2021/10/26 13:04:02;;;;;;;0.00;0.00;;;;;;;;;;5042531;28;20037;-84
2021/10/26 13:06:32;;;;;;;0.10;0.10;;;;;;;;;;5043066;28;20047;-84
2021/10/26 13:08:58;;;;;;;0.20;0.20;;;;;;;;;;5041640;28;20094;-84
2021/10/26 13:11:25;;;;;;;;;;;;;;;;;;5043266;28;20056;-84
2021/10/26 13:13:59;;;;;;;0.25;0.25;;;;;;;;;;5042103;28;20383;-83
2021/10/26 13:16:33;;;;;;;0.10;0.10;;;;;;;;;;5026802;28;20408;-85
2021/10/26 13:19:12;;;;;;;0.10;0.10;;;;;;;;;;5043437;28;20443;-84
2021/10/26 13:21:38;;;;;;;0.20;0.20;;;;;;;;;;5042154;28;20326;-84
2021/10/26 13:24:05;;;;;;;0.43;0.30;;;;;;;;;;5041324;28;20104;-84
2021/10/26 13:26:33;;;;;;;0.15;0.15;;;;;;;;;;5041521;28;20032;-84
2021/10/26 13:29:00;;;;;;;0.10;0.10;;;;;;;;;;5041328;28;20025;-84
2021/10/26 13:31:26;;;;;;;0.00;0.00;;;;;;;;;;5040403;28;20112;-85
2021/10/26 13:33:52;;;;;;;0.43;0.43;;;;;;;;;;5043573;28;20033;-85
2021/10/26 13:36:19;;;;;;;0.10;0.10;;;;;;;;;;5041342;28;21032;-85
2021/10/26 13:38:45;;;;;;;0.00;0.00;;;;;;;;;;5041849;28;20047;-84
2021/10/26 13:41:14;;;;;;;1.17;0.57;;;;;;;;;;5044681;28;20020;-84
2021/10/26 13:43:44;;;;;;;0.45;0.45;;;;;;;;;;5045339;28;20563;-84
2021/10/26 13:46:12;;;;;;;0.28;0.28;;;;;;;;;;5043461;28;20041;-85
2021/10/26 13:48:39;;;;;;;0.10;0.10;;;;;;;;;;5047283;28;20205;-84
2021/10/26 13:51:06;;;;;;;0.10;0.10;;;;;;;;;;5045331;28;20507;-85
2021/10/26 13:53:35;;;;;;;0.52;0.50;;;;;;;;;;5045396;28;20029;-84
2021/10/26 13:56:01;;;;;;;0.00;0.00;;;;;;;;;;5044997;28;20021;-84
2021/10/26 13:58:27;;;;;;;0.00;0.00;;;;;;;;;;5044313;28;20033;-84
2021/10/26 14:00:55;;;;;;;0.00;0.00;;;;;;;;;;5046990;28;20032;-84
2021/10/26 14:03:22;;;;;;;4.28;2.08;;;;;;;;;;5045509;28;20279;-84
2021/10/26 14:05:48;;;;;;;;;;;;;;;;;;5045871;28;20021;-85
2021/10/26 14:08:15;;;;;;;0.10;0.10;;;;;;;;;;5045197;28;19921;-83
2021/10/26 14:10:41;;;;;;;0.10;0.10;;;;;;;;;;5044719;28;20064;-85
2021/10/26 14:13:08;;;;;;;0.43;0.43;;;;;;;;;;5044115;28;20033;-84
2021/10/26 14:15:35;;;;;;;0.10;0.10;;;;;;;;;;5044978;28;20025;-84
2021/10/26 14:18:01;;;;;;;0.10;0.10;;;;;;;;;;5044908;28;20037;-85
2021/10/26 14:20:29;;;;;;;3.10;1.40;;;;;;;;;;5044839;28;20456;-85
2021/10/26 14:22:55;;;;;;;0.00;0.00;;;;;;;;;;5045420;28;20816;-84
2021/10/26 14:25:21;;;;;;;0.00;0.00;;;;;;;;;;5044868;28;20030;-85
2021/10/26 14:27:49;;;;;;;0.20;0.20;;;;;;;;;;5046791;28;20452;-84
2021/10/26 14:30:16;;;;;;;0.00;0.00;;;;;;;;;;5044577;28;20029;-85
2021/10/26 14:32:49;;;;;;;0.00;0.00;;;;;;;;;;5044975;28;20047;-84
2021/10/26 14:35:16;;;;;;;0.10;0.10;;;;;;;;;;5044493;28;20787;-85
2021/10/26 14:56:13;;;;;;;0.03;0.03;;;;;;;;;;4983088;28;20026;-85
2021/10/26 14:58:40;;;;;;;0.28;0.10;;;;;;;;;;4983802;28;20042;-85
2021/10/26 15:01:07;;;;;;;0.10;0.10;;;;;;;;;;4984106;28;20217;-85
2021/10/26 15:03:33;;;;;;;;;;;;;;;;;;4984840;28;20045;-85
2021/10/26 15:05:59;;;;;;;;;;;;;;;;;;4983983;28;19914;-85
2021/10/26 15:08:28;;;;;;;0.00;0.00;;;;;;;;;;4983740;28;19918;-85
2021/10/26 15:11:10;;;;;;;0.00;0.00;;;;;;;;;;4979287;28;20129;-85
2021/10/26 15:13:41;;;;;;;0.10;0.10;;;;;;;;;;4969516;28;20537;-84
2021/10/26 15:16:08;;;;;;;0.10;0.10;;;;;;;;;;4967221;28;20022;-85
2021/10/26 15:18:36;;;;;;;0.10;0.10;;;;;;;;;;4984054;28;20070;-85
2021/10/26 15:21:10;;;;;;;0.00;0.00;;;;;;;;;;5042113;28;20032;-84